Tres Forquilhas, Brazil
Current Conditions -  °F | °C
As of 12:00 PM on Thursday 29 Jan 2015 (Local Time) from SBCO Reporting Station
Broken Clouds Broken Clouds  
Wind Chill: 73°   Ceiling: 600
Heat Index: 73°   Visibility: 1.8mi
Dew Point: 72°   Wind: 14mph
Humidity: 94%   Direction: 220°SW
Pressure: 29.83"   Gusts: 29mph
Location:  29.59°S, 50.07°W
Report Text: SBCO 291400Z 22012G25KT 160V260 3000 1200N R12/1500 R30/P2000 RA SCT003 BKN006 BKN012 SCT030TCU 23/22 Q1010
Loading
Personal Weather Stations






























Interactive Weather Map New forecast layout! Learn more

10-Day Weather Forecast

Advertisements
Track Severe Weather on mobile